Αναφορές METAR

 

LGTS - Thessaloniki/Mik, Greece
Απόσταση από το σταθμό: ΝΝΔ 77km
Ενημερώθηκε: 17/01/2018 08:20
Fog, Νεφοσκεπής
Fog, Νεφοσκεπής
 Ανεμος από μεταβλητός
Ανεμος: μεταβλητός 6 km/h
Θερμοκρασία: 4°C
Σημείο Δρόσου: 3°C
Υγρασία: 93%
Βαρόμετρο: 1008 hPa
Summary: Fog
Νέφωση: Νεφοσκεπής
Ορατότητα: 1 km
Λεπτομέρειες νέφωσης: Νεφοσκεπής 30 m
2018/01/17 06:20 LGTS 170620Z VRB03KT 0600 R10L/1100 R28R/0900 FG OVC001 04/03 Q1008 NOSIG
LGKV - Kavala/Chrisoupo, Greece
Απόσταση από το σταθμό: ΑΝΑ 120km
Ενημερώθηκε: 17/01/2018 08:20
Διάσπαρτα Νέφη
Διάσπαρτα Νέφη
 Ανεμος από calm
Ανεμος: Απνοια
Θερμοκρασία: 2°C
Σημείο Δρόσου: 2°C
Υγρασία: 100%
Βαρόμετρο: 1007 hPa
Νέφωση: Διάσπαρτα Νέφη
Ορατότητα: 10 km
Λεπτομέρειες νέφωσης: Διάσπαρτα Νέφη 610 m
2018/01/17 06:20 LGKV 170620Z 00000KT 9999 FEW020 02/02 Q1007
 
LGKZ - Kozani (civ/Army, Greece
Απόσταση από το σταθμό: ΝΔ 154km
Ενημερώθηκε: 17/01/2018 07:50
Μερικώς Νεφελώδης
Μερικώς Νεφελώδης
 Ανεμος από calm
Ανεμος: Απνοια
Θερμοκρασία: 3°C
Σημείο Δρόσου: 0°C
Υγρασία: 81%
Βαρόμετρο: 1008 hPa
Νέφωση: Μερικώς Νεφελώδης
Ορατότητα: 10 km
Λεπτομέρειες νέφωσης: Διάσπαρτα Νέφη 610 m
Μερικώς Νεφελώδης 2134 m
2018/01/17 05:50 LGKZ 170550Z 00000KT 9999 FEW020 SCT070 03/M00 Q1008
LWSK - Skopje/Petrovac, Macedonia
Απόσταση από το σταθμό: ΔΒΔ 159km
Ενημερώθηκε: 17/01/2018 08:30
Νεφοσκεπής
Νεφοσκεπής
 Ανεμος από calm
Ανεμος: Απνοια
Θερμοκρασία: 3°C
Σημείο Δρόσου: 2°C
Υγρασία: 93%
Βαρόμετρο: 1006 hPa
Νέφωση: Νεφοσκεπής
Ορατότητα: 10 km
Λεπτομέρειες νέφωσης: Νεφοσκεπής 183 m
2018/01/17 06:30 LWSK 170630Z 00000KT 9999 OVC006 03/02 Q1006 NOSIG
 
LBSF - Sofia (observato, Bulgaria
Απόσταση από το σταθμό: Β 164km
Ενημερώθηκε: 17/01/2018 08:30
Διάσπαρτα Νέφη
Διάσπαρτα Νέφη
 Ανεμος από ΑΝΑ
Ανεμος: ΑΝΑ 9 km/h
Θερμοκρασία: 0°C
Wind Chill: -3°C
Σημείο Δρόσου: -1°C
Υγρασία: 93%
Βαρόμετρο: 1003 hPa
Νέφωση: Διάσπαρτα Νέφη
Ορατότητα: 10 km
Λεπτομέρειες νέφωσης: Διάσπαρτα Νέφη 1524 m
2018/01/17 06:30 LBSF 170630Z 11005KT 9999 FEW050 M00/M01 Q1003 R99/19//95 NOSIG
LBPD - Plovdiv, Bulgaria
Απόσταση από το σταθμό: ΒΑ 168km
Ενημερώθηκε: 17/01/2018 08:30
Freezing fog, Νεφοσκεπής
Freezing fog, Νεφοσκεπής
 Ανεμος από ΝΝΑ
Ανεμος: ΝΝΑ 7 km/h
Θερμοκρασία: -3°C
Wind Chill: -6°C
Σημείο Δρόσου: -3°C
Υγρασία: 100%
Βαρόμετρο: 1006 hPa
Summary: Freezing Fog
Νέφωση: Νεφοσκεπής
Ορατότητα: 0 km
Λεπτομέρειες νέφωσης: Νεφοσκεπής 30 m
2018/01/17 06:30 LBPD 170630Z AUTO 15004KT 0100 R30/0125N FZFG VV001 M03/M03 Q1006 BECMG 0200 FZFG VV001
 
LWOH - Ohrid, Macedonia
Απόσταση από το σταθμό: Δ 204km
Ενημερώθηκε: 16/01/2018 17:00
ΜΗ ΠΡΟΣΦΑΤΟ METAR
Βροχή, Νεφοσκεπής
Βροχή, Νεφοσκεπής
 Ανεμος από ΝΝΑ
Ανεμος: ΝΝΑ 20 km/h
Θερμοκρασία: 5°C
Wind Chill: 1°C
Σημείο Δρόσου: 3°C
Υγρασία: 87%
Βαρόμετρο: 1013 hPa
Summary: Βροχή
Νέφωση: Νεφοσκεπής
Ορατότητα: 8 km
Λεπτομέρειες νέφωσης: Μερικώς Νεφελώδης 457 m
Μερικώς Νεφελώδης 762 m
Νεφοσκεπής 1219 m
2018/01/16 15:00 LWOH 161500Z 15011KT 120V200 8000 RA SCT015 SCT025TCU OVC040 05/03 Q1013
LGLM - Limnos Island Ar, Greece
Απόσταση από το σταθμό: ΝΑ 220km
Ενημερώθηκε: 17/01/2018 08:20
Διάσπαρτα Νέφη
Διάσπαρτα Νέφη
 Ανεμος από ΝΝΔ
Ανεμος: ΝΝΔ 11 km/h
Θερμοκρασία: 10°C
Wind Chill: 8°C
Σημείο Δρόσου: 8°C
Υγρασία: 88%
Βαρόμετρο: 1008 hPa
Νέφωση: Διάσπαρτα Νέφη
Ορατότητα: 10 km
Λεπτομέρειες νέφωσης: Διάσπαρτα Νέφη 762 m
2018/01/17 06:20 LGLM 170620Z 21006KT 9999 FEW025 10/08 Q1008
 
LGBL - Nea Anchialos, Greece
Απόσταση από το σταθμό: Ν 221km
Ενημερώθηκε: 17/01/2018 08:20
Αίθριος
Αίθριος
 Ανεμος από calm
Ανεμος: Απνοια
Θερμοκρασία: 5°C
Σημείο Δρόσου: 4°C
Υγρασία: 93%
Βαρόμετρο: 1009 hPa
Summary: Αίθριος
Ορατότητα: greater than 10 km
2018/01/17 06:20 LGBL 170620Z 00000KT CAVOK 05/04 Q1009
LGSK - Skiathos Island, Greece
Απόσταση από το σταθμό: Ν 223km
Ενημερώθηκε: 16/01/2018 19:50
ΜΗ ΠΡΟΣΦΑΤΟ METAR
Διάσπαρτα Νέφη
Διάσπαρτα Νέφη
 Ανεμος από calm
Ανεμος: Απνοια
Θερμοκρασία: 9°C
Σημείο Δρόσου: 6°C
Υγρασία: 82%
Βαρόμετρο: 1014 hPa
Νέφωση: Διάσπαρτα Νέφη
Ορατότητα: 10 km
Λεπτομέρειες νέφωσης: Διάσπαρτα Νέφη 610 m
2018/01/16 17:50 LGSK 161750Z 00000KT 9999 FEW020 09/06 Q1014
 
LGAL - Alexandroupolis, Greece
Απόσταση από το σταθμό: Α 231km
Ενημερώθηκε: 17/01/2018 08:20
Διάσπαρτα Νέφη
Διάσπαρτα Νέφη
 Ανεμος από calm
Ανεμος: Απνοια
Θερμοκρασία: 5°C
Σημείο Δρόσου: 5°C
Υγρασία: 100%
Βαρόμετρο: 1008 hPa
Νέφωση: Διάσπαρτα Νέφη
Ορατότητα: 10 km
Λεπτομέρειες νέφωσης: Διάσπαρτα Νέφη 762 m
2018/01/17 06:20 LGAL 170620Z 00000KT 9999 FEW025 05/05 Q1008
BKPR - Prishtina, Yugoslavia
Απόσταση από το σταθμό: ΒΔ 240km
Ενημερώθηκε: 17/01/2018 08:30
Μερικώς Νεφελώδης
Μερικώς Νεφελώδης
 Ανεμος από Ν
Ανεμος: Ν 15 km/h
Θερμοκρασία: 4°C
Wind Chill: 1°C
Σημείο Δρόσου: -1°C
Υγρασία: 70%
Βαρόμετρο: 1003 hPa
Νέφωση: Μερικώς Νεφελώδης
Ορατότητα: 10 km
Λεπτομέρειες νέφωσης: Μερικώς Νεφελώδης 2438 m
2018/01/17 06:30 BKPR 170630Z 18008KT 9999 SCT080 04/M01 Q1003 NOSIG RMK 17010095
 
LGIO - Ioannina, Greece
Απόσταση από το σταθμό: ΝΔ 262km
Ενημερώθηκε: 17/01/2018 08:20
Ασθενής Βροχή, Νεφοσκεπής
Ασθενής Βροχή, Νεφοσκεπής
 Ανεμος από μεταβλητός
Ανεμος: μεταβλητός 0 km/h
Θερμοκρασία: 6°C
Σημείο Δρόσου: 5°C
Υγρασία: 93%
Βαρόμετρο: 1010 hPa
Summary: Ασθενής Βροχή
Νέφωση: Νεφοσκεπής
Ορατότητα: 10 km
Λεπτομέρειες νέφωσης: Διάσπαρτα Νέφη 61 m
Κυρίως Νεφελώδης 914 m
Νεφοσκεπής 2134 m
2018/01/17 06:20 LGIO 170620Z /////KT 9999 -RA FEW002 BKN030 OVC070 06/05 Q1010
LYNI - Nis, Yugoslavia
Απόσταση από το σταθμό: ΒΒΔ 262km
Ενημερώθηκε: 17/01/2018 08:30
Μερικώς Νεφελώδης
Μερικώς Νεφελώδης
 Ανεμος από ΝΑ
Ανεμος: ΝΑ 6 km/h
Θερμοκρασία: 7°C
Σημείο Δρόσου: 2°C
Υγρασία: 71%
Βαρόμετρο: 1002 hPa
Νέφωση: Μερικώς Νεφελώδης
Ορατότητα: 10 km
Λεπτομέρειες νέφωσης: Μερικώς Νεφελώδης 1219 m
2018/01/17 06:30 LYNI 170630Z 14003KT 080V190 9999 SCT040 07/02 Q1002 R11/1///95 NOSIG
 
LGSY - Skiros, Greece
Απόσταση από το σταθμό: ΝΝΑ 268km
Ενημερώθηκε: 17/01/2018 07:50
Αίθριος
Αίθριος
 Ανεμος από ΝΔ
Ανεμος: ΝΔ 15 km/h
Θερμοκρασία: 11°C
Σημείο Δρόσου: 7°C
Υγρασία: 77%
Βαρόμετρο: 1007 hPa
Summary: Αίθριος
Ορατότητα: greater than 10 km
2018/01/17 05:50 LGSY 170550Z 22008KT CAVOK 11/07 Q1007 BLU
LATI - Tirana, Albania
Απόσταση από το σταθμό: Δ 290km
Ενημερώθηκε: 17/01/2018 08:20
Κυρίως Νεφελώδης
Κυρίως Νεφελώδης
 Ανεμος από ΑΝΑ
Ανεμος: ΑΝΑ 17 km/h
Θερμοκρασία: 11°C
Σημείο Δρόσου: 8°C
Υγρασία: 82%
Βαρόμετρο: 1006 hPa
Νέφωση: Κυρίως Νεφελώδης
Ορατότητα: 10 km
Λεπτομέρειες νέφωσης: Μερικώς Νεφελώδης 762 m
Κυρίως Νεφελώδης 914 m
Κυρίως Νεφελώδης 1524 m
2018/01/17 06:20 LATI 170620Z 12009KT 9999 SCT025 BKN030 BKN050 11/08 Q1006 NOSIG
 
LBGO - Gorna Orechovist, Bulgaria
Απόσταση από το σταθμό: ΒΑ 300km
Ενημερώθηκε: 17/01/2018 08:30
Mist, Αίθριος
Mist, Αίθριος
 Ανεμος από calm
Ανεμος: Απνοια
Θερμοκρασία: -9°C
Σημείο Δρόσου: -9°C
Υγρασία: 100%
Βαρόμετρο: 1004 hPa
Summary: Mist
Νέφωση: Αίθριος
Ορατότητα: 3 km
2018/01/17 06:30 LBGO 170630Z AUTO 00000KT 3100 BR NCD M09/M09 Q1004 TEMPO 0600 FZFG BKN003
LGPZ - Preveza/Aktion, Greece
Απόσταση από το σταθμό: ΝΔ 328km
Ενημερώθηκε: 17/01/2018 08:20
Κυρίως Νεφελώδης
Κυρίως Νεφελώδης
 Ανεμος από ΒΑ
Ανεμος: ΒΑ 7 km/h
Θερμοκρασία: 9°C
Wind Chill: 8°C
Σημείο Δρόσου: 8°C
Υγρασία: 94%
Βαρόμετρο: 1012 hPa
Νέφωση: Κυρίως Νεφελώδης
Ορατότητα: 10 km
Λεπτομέρειες νέφωσης: Διάσπαρτα Νέφη 335 m
Μερικώς Νεφελώδης 610 m
Κυρίως Νεφελώδης 2134 m
2018/01/17 06:20 LGPZ 170620Z 04004KT 9999 FEW011 SCT020 BKN070 09/08 Q1012
 
LGKR - Ioannis Kapodist, Greece
Απόσταση από το σταθμό: ΔΝΔ 330km
Ενημερώθηκε: 17/01/2018 08:20
Κυρίως Νεφελώδης
Κυρίως Νεφελώδης
 Ανεμος από ΒΑ
Ανεμος: ΒΑ 4 km/h
Θερμοκρασία: 11°C
Σημείο Δρόσου: 10°C
Υγρασία: 94%
Βαρόμετρο: 1010 hPa
Νέφωση: Κυρίως Νεφελώδης
Ορατότητα: 10 km
Λεπτομέρειες νέφωσης: Κυρίως Νεφελώδης 488 m
Κυρίως Νεφελώδης 762 m
Κυρίως Νεφελώδης 2438 m
2018/01/17 06:20 LGKR 170620Z 05002KT 9999 BKN016 BKN025 BKN080 11/10 Q1010 NOSIG
LGEL - Elefsis (hel-Afb, Greece
Απόσταση από το σταθμό: Ν 347km
Ενημερώθηκε: 17/01/2018 08:20
Μερικώς Νεφελώδης
Μερικώς Νεφελώδης
 Ανεμος από calm
Ανεμος: Απνοια
Θερμοκρασία: 8°C
Σημείο Δρόσου: 7°C
Υγρασία: 93%
Βαρόμετρο: 1011 hPa
Νέφωση: Μερικώς Νεφελώδης
Ορατότητα: 10 km
Λεπτομέρειες νέφωσης: Μερικώς Νεφελώδης 762 m
2018/01/17 06:20 LGEL 170620Z 00000KT 9999 SCT025 08/07 Q1011


 ♦     ♦     ♦     Ποτέ μη βασίζετε κρίσιμες αποφάσεις σ'αυτές ή οποιεσδήποτε πληροφορίες καιρού από το Internet     ♦     ♦     ♦